sensor_id;sensor_type;location;lat;lon;timestamp;P1;durP1;ratioP1;P2;durP2;ratioP2
49464;SDS011;35358;49.342;8.802;2022-09-28T00:02:06;3.58;;;0.70;;
49464;SDS011;35358;49.342;8.802;2022-09-28T00:04:33;2.97;;;0.70;;
49464;SDS011;35358;49.342;8.802;2022-09-28T00:07:01;2.60;;;0.57;;
49464;SDS011;35358;49.342;8.802;2022-09-28T00:09:29;2.50;;;0.70;;
49464;SDS011;35358;49.342;8.802;2022-09-28T00:11:55;2.25;;;0.93;;
49464;SDS011;35358;49.342;8.802;2022-09-28T00:14:23;1.88;;;0.70;;
49464;SDS011;35358;49.342;8.802;2022-09-28T00:16:51;1.20;;;0.43;;
49464;SDS011;35358;49.342;8.802;2022-09-28T00:19:21;1.75;;;0.57;;
49464;SDS011;35358;49.342;8.802;2022-09-28T00:21:49;3.15;;;0.60;;
49464;SDS011;35358;49.342;8.802;2022-09-28T00:24:15;3.95;;;0.93;;
49464;SDS011;35358;49.342;8.802;2022-09-28T00:26:54;4.22;;;0.60;;
49464;SDS011;35358;49.342;8.802;2022-09-28T00:31:51;15.85;;;11.02;;
49464;SDS011;35358;49.342;8.802;2022-09-28T00:34:18;46.30;;;29.08;;
49464;SDS011;35358;49.342;8.802;2022-09-28T00:36:44;22.13;;;11.88;;
49464;SDS011;35358;49.342;8.802;2022-09-28T00:39:11;8.63;;;5.43;;
49464;SDS011;35358;49.342;8.802;2022-09-28T00:41:38;2.88;;;1.25;;
49464;SDS011;35358;49.342;8.802;2022-09-28T00:49:31;1.23;;;0.60;;
49464;SDS011;35358;49.342;8.802;2022-09-28T00:52:11;1.58;;;0.50;;
49464;SDS011;35358;49.342;8.802;2022-09-28T00:54:50;0.70;;;0.50;;
49464;SDS011;35358;49.342;8.802;2022-09-28T00:57:17;2.25;;;0.32;;
49464;SDS011;35358;49.342;8.802;2022-09-28T00:59:45;1.45;;;0.50;;
49464;SDS011;35358;49.342;8.802;2022-09-28T01:02:13;1.55;;;0.40;;
49464;SDS011;35358;49.342;8.802;2022-09-28T01:04:41;1.15;;;0.40;;
49464;SDS011;35358;49.342;8.802;2022-09-28T01:07:07;4.07;;;0.55;;
49464;SDS011;35358;49.342;8.802;2022-09-28T01:09:35;3.00;;;0.40;;
49464;SDS011;35358;49.342;8.802;2022-09-28T01:12:05;3.42;;;0.40;;
49464;SDS011;35358;49.342;8.802;2022-09-28T01:14:31;4.05;;;0.50;;
49464;SDS011;35358;49.342;8.802;2022-09-28T01:17:06;1.95;;;0.47;;
49464;SDS011;35358;49.342;8.802;2022-09-28T01:24:52;1.20;;;0.50;;
49464;SDS011;35358;49.342;8.802;2022-09-28T01:30:03;2.83;;;0.80;;
49464;SDS011;35358;49.342;8.802;2022-09-28T01:32:36;2.58;;;0.57;;
49464;SDS011;35358;49.342;8.802;2022-09-28T01:35:26;3.30;;;0.40;;
49464;SDS011;35358;49.342;8.802;2022-09-28T01:38:04;2.10;;;0.50;;
49464;SDS011;35358;49.342;8.802;2022-09-28T01:40:34;3.10;;;0.55;;
49464;SDS011;35358;49.342;8.802;2022-09-28T01:43:04;2.90;;;0.32;;
49464;SDS011;35358;49.342;8.802;2022-09-28T01:45:43;1.90;;;0.70;;
49464;SDS011;35358;49.342;8.802;2022-09-28T01:48:37;3.40;;;0.55;;
49464;SDS011;35358;49.342;8.802;2022-09-28T01:51:40;2.20;;;0.50;;
49464;SDS011;35358;49.342;8.802;2022-09-28T01:54:39;2.13;;;0.50;;
49464;SDS011;35358;49.342;8.802;2022-09-28T01:57:36;2.75;;;0.70;;
49464;SDS011;35358;49.342;8.802;2022-09-28T02:00:19;5.40;;;0.70;;
49464;SDS011;35358;49.342;8.802;2022-09-28T02:03:04;4.25;;;0.85;;
49464;SDS011;35358;49.342;8.802;2022-09-28T02:05:48;1.70;;;0.50;;
49464;SDS011;35358;49.342;8.802;2022-09-28T02:08:39;1.35;;;0.50;;
49464;SDS011;35358;49.342;8.802;2022-09-28T02:11:21;1.80;;;0.70;;
49464;SDS011;35358;49.342;8.802;2022-09-28T02:19:02;0.95;;;0.65;;
49464;SDS011;35358;49.342;8.802;2022-09-28T02:24:02;2.78;;;0.60;;
49464;SDS011;35358;49.342;8.802;2022-09-28T02:26:39;1.58;;;0.50;;
49464;SDS011;35358;49.342;8.802;2022-09-28T02:29:08;0.75;;;0.47;;
49464;SDS011;35358;49.342;8.802;2022-09-28T02:31:36;2.25;;;0.70;;
49464;SDS011;35358;49.342;8.802;2022-09-28T02:34:02;1.48;;;0.50;;
49464;SDS011;35358;49.342;8.802;2022-09-28T02:36:30;1.92;;;0.55;;
49464;SDS011;35358;49.342;8.802;2022-09-28T02:38:57;0.93;;;0.40;;
49464;SDS011;35358;49.342;8.802;2022-09-28T02:50:11;1.20;;;0.60;;
49464;SDS011;35358;49.342;8.802;2022-09-28T03:03:41;1.85;;;0.85;;
49464;SDS011;35358;49.342;8.802;2022-09-28T03:06:27;2.67;;;0.80;;
49464;SDS011;35358;49.342;8.802;2022-09-28T03:09:08;2.15;;;0.90;;
49464;SDS011;35358;49.342;8.802;2022-09-28T03:11:37;1.83;;;0.50;;
49464;SDS011;35358;49.342;8.802;2022-09-28T03:14:09;1.10;;;0.65;;
49464;SDS011;35358;49.342;8.802;2022-09-28T03:16:41;1.75;;;0.77;;
49464;SDS011;35358;49.342;8.802;2022-09-28T03:19:08;1.00;;;0.57;;
49464;SDS011;35358;49.342;8.802;2022-09-28T03:24:03;0.88;;;0.60;;
49464;SDS011;35358;49.342;8.802;2022-09-28T03:26:30;0.55;;;0.47;;
49464;SDS011;35358;49.342;8.802;2022-09-28T03:28:58;2.38;;;0.75;;
49464;SDS011;35358;49.342;8.802;2022-09-28T03:31:24;1.42;;;0.63;;
49464;SDS011;35358;49.342;8.802;2022-09-28T03:33:49;1.05;;;0.43;;
49464;SDS011;35358;49.342;8.802;2022-09-28T03:36:15;2.70;;;0.63;;
49464;SDS011;35358;49.342;8.802;2022-09-28T03:38:41;4.20;;;0.60;;
49464;SDS011;35358;49.342;8.802;2022-09-28T03:41:06;2.25;;;0.70;;
49464;SDS011;35358;49.342;8.802;2022-09-28T03:43:33;1.13;;;0.60;;
49464;SDS011;35358;49.342;8.802;2022-09-28T03:46:04;2.83;;;0.88;;
49464;SDS011;35358;49.342;8.802;2022-09-28T03:48:34;1.20;;;0.60;;
49464;SDS011;35358;49.342;8.802;2022-09-28T03:51:04;1.30;;;0.60;;
49464;SDS011;35358;49.342;8.802;2022-09-28T03:53:33;2.20;;;1.38;;
49464;SDS011;35358;49.342;8.802;2022-09-28T03:56:09;0.95;;;0.55;;
49464;SDS011;35358;49.342;8.802;2022-09-28T03:58:40;1.23;;;0.60;;
49464;SDS011;35358;49.342;8.802;2022-09-28T04:01:09;3.30;;;1.20;;
49464;SDS011;35358;49.342;8.802;2022-09-28T04:03:36;0.95;;;0.60;;
49464;SDS011;35358;49.342;8.802;2022-09-28T04:06:02;1.95;;;0.88;;
49464;SDS011;35358;49.342;8.802;2022-09-28T04:08:30;1.58;;;0.90;;
49464;SDS011;35358;49.342;8.802;2022-09-28T04:10:58;5.35;;;1.13;;
49464;SDS011;35358;49.342;8.802;2022-09-28T04:13:25;1.63;;;1.00;;
49464;SDS011;35358;49.342;8.802;2022-09-28T04:15:55;1.02;;;0.90;;
49464;SDS011;35358;49.342;8.802;2022-09-28T04:18:22;3.22;;;1.00;;
49464;SDS011;35358;49.342;8.802;2022-09-28T04:20:56;2.05;;;0.90;;
49464;SDS011;35358;49.342;8.802;2022-09-28T04:23:30;3.40;;;1.05;;
49464;SDS011;35358;49.342;8.802;2022-09-28T04:25:57;2.90;;;1.33;;
49464;SDS011;35358;49.342;8.802;2022-09-28T04:28:23;4.32;;;1.40;;
49464;SDS011;35358;49.342;8.802;2022-09-28T04:31:08;2.22;;;1.20;;
49464;SDS011;35358;49.342;8.802;2022-09-28T04:33:39;3.88;;;1.15;;
49464;SDS011;35358;49.342;8.802;2022-09-28T04:36:04;1.75;;;1.23;;
49464;SDS011;35358;49.342;8.802;2022-09-28T04:38:33;2.90;;;1.30;;
49464;SDS011;35358;49.342;8.802;2022-09-28T04:41:02;4.35;;;1.52;;
49464;SDS011;35358;49.342;8.802;2022-09-28T04:43:30;2.58;;;1.35;;
49464;SDS011;35358;49.342;8.802;2022-09-28T04:45:59;2.83;;;1.30;;
49464;SDS011;35358;49.342;8.802;2022-09-28T04:48:29;2.28;;;1.40;;
49464;SDS011;35358;49.342;8.802;2022-09-28T04:50:58;3.92;;;1.70;;
49464;SDS011;35358;49.342;8.802;2022-09-28T04:53:25;6.03;;;1.90;;
49464;SDS011;35358;49.342;8.802;2022-09-28T04:55:57;5.05;;;2.08;;
49464;SDS011;35358;49.342;8.802;2022-09-28T04:58:23;5.38;;;1.80;;
49464;SDS011;35358;49.342;8.802;2022-09-28T05:00:49;2.60;;;2.40;;
49464;SDS011;35358;49.342;8.802;2022-09-28T05:03:20;2.65;;;1.98;;
49464;SDS011;35358;49.342;8.802;2022-09-28T05:05:46;5.57;;;2.05;;
49464;SDS011;35358;49.342;8.802;2022-09-28T05:08:16;6.07;;;2.20;;
49464;SDS011;35358;49.342;8.802;2022-09-28T05:10:47;4.53;;;2.25;;
49464;SDS011;35358;49.342;8.802;2022-09-28T05:13:13;4.30;;;2.00;;
49464;SDS011;35358;49.342;8.802;2022-09-28T05:15:39;4.47;;;2.88;;
49464;SDS011;35358;49.342;8.802;2022-09-28T05:18:06;3.75;;;2.20;;
49464;SDS011;35358;49.342;8.802;2022-09-28T05:20:32;3.40;;;2.10;;
49464;SDS011;35358;49.342;8.802;2022-09-28T05:23:07;2.95;;;2.15;;
49464;SDS011;35358;49.342;8.802;2022-09-28T05:25:33;4.65;;;1.80;;
49464;SDS011;35358;49.342;8.802;2022-09-28T05:27:59;4.65;;;1.85;;
49464;SDS011;35358;49.342;8.802;2022-09-28T05:30:26;7.72;;;3.83;;
49464;SDS011;35358;49.342;8.802;2022-09-28T05:32:51;4.53;;;1.70;;
49464;SDS011;35358;49.342;8.802;2022-09-28T05:35:17;5.57;;;2.42;;
49464;SDS011;35358;49.342;8.802;2022-09-28T05:37:48;36.00;;;20.02;;
49464;SDS011;35358;49.342;8.802;2022-09-28T05:40:14;8.07;;;4.18;;
49464;SDS011;35358;49.342;8.802;2022-09-28T05:42:40;6.85;;;3.17;;
49464;SDS011;35358;49.342;8.802;2022-09-28T05:45:06;4.55;;;2.65;;
49464;SDS011;35358;49.342;8.802;2022-09-28T05:47:36;14.77;;;6.85;;
49464;SDS011;35358;49.342;8.802;2022-09-28T05:50:08;16.10;;;6.95;;
49464;SDS011;35358;49.342;8.802;2022-09-28T05:52:36;68.85;;;27.80;;
49464;SDS011;35358;49.342;8.802;2022-09-28T05:55:03;17.10;;;7.63;;
49464;SDS011;35358;49.342;8.802;2022-09-28T05:57:32;25.40;;;13.52;;
49464;SDS011;35358;49.342;8.802;2022-09-28T05:59:58;7.55;;;4.38;;
49464;SDS011;35358;49.342;8.802;2022-09-28T06:02:24;11.98;;;5.20;;
49464;SDS011;35358;49.342;8.802;2022-09-28T06:04:49;4.13;;;1.90;;
49464;SDS011;35358;49.342;8.802;2022-09-28T06:07:19;4.75;;;2.33;;
49464;SDS011;35358;49.342;8.802;2022-09-28T06:09:48;5.28;;;2.90;;
49464;SDS011;35358;49.342;8.802;2022-09-28T06:12:13;6.45;;;2.22;;
49464;SDS011;35358;49.342;8.802;2022-09-28T06:14:40;4.13;;;3.55;;
49464;SDS011;35358;49.342;8.802;2022-09-28T06:17:08;4.20;;;1.95;;
49464;SDS011;35358;49.342;8.802;2022-09-28T06:19:36;3.55;;;1.80;;
49464;SDS011;35358;49.342;8.802;2022-09-28T06:22:02;6.00;;;3.40;;
49464;SDS011;35358;49.342;8.802;2022-09-28T06:24:30;7.18;;;3.38;;
49464;SDS011;35358;49.342;8.802;2022-09-28T06:27:00;3.38;;;1.52;;
49464;SDS011;35358;49.342;8.802;2022-09-28T06:29:26;3.45;;;1.80;;
49464;SDS011;35358;49.342;8.802;2022-09-28T06:31:53;5.63;;;4.28;;
49464;SDS011;35358;49.342;8.802;2022-09-28T06:34:19;3.88;;;2.78;;
49464;SDS011;35358;49.342;8.802;2022-09-28T06:36:45;3.78;;;1.50;;
49464;SDS011;35358;49.342;8.802;2022-09-28T06:39:14;1.92;;;1.20;;
49464;SDS011;35358;49.342;8.802;2022-09-28T06:41:39;4.70;;;1.63;;
49464;SDS011;35358;49.342;8.802;2022-09-28T06:44:05;3.53;;;1.42;;
49464;SDS011;35358;49.342;8.802;2022-09-28T06:46:35;5.88;;;1.73;;
49464;SDS011;35358;49.342;8.802;2022-09-28T06:49:02;3.47;;;1.40;;
49464;SDS011;35358;49.342;8.802;2022-09-28T06:51:30;4.78;;;1.55;;
49464;SDS011;35358;49.342;8.802;2022-09-28T06:53:56;5.45;;;1.65;;
49464;SDS011;35358;49.342;8.802;2022-09-28T06:56:26;2.00;;;1.50;;
49464;SDS011;35358;49.342;8.802;2022-09-28T06:58:52;6.50;;;2.00;;
49464;SDS011;35358;49.342;8.802;2022-09-28T07:01:17;2.58;;;1.77;;
49464;SDS011;35358;49.342;8.802;2022-09-28T07:03:43;4.13;;;2.00;;
49464;SDS011;35358;49.342;8.802;2022-09-28T07:06:11;3.30;;;2.30;;
49464;SDS011;35358;49.342;8.802;2022-09-28T07:08:37;4.88;;;1.90;;
49464;SDS011;35358;49.342;8.802;2022-09-28T07:11:06;4.57;;;1.83;;
49464;SDS011;35358;49.342;8.802;2022-09-28T07:13:34;4.82;;;2.38;;
49464;SDS011;35358;49.342;8.802;2022-09-28T07:16:04;4.97;;;2.35;;
49464;SDS011;35358;49.342;8.802;2022-09-28T07:18:30;5.35;;;1.92;;
49464;SDS011;35358;49.342;8.802;2022-09-28T07:20:55;4.47;;;1.90;;
49464;SDS011;35358;49.342;8.802;2022-09-28T07:23:21;4.60;;;2.20;;
49464;SDS011;35358;49.342;8.802;2022-09-28T07:25:56;4.55;;;2.40;;
49464;SDS011;35358;49.342;8.802;2022-09-28T07:28:22;3.30;;;2.05;;
49464;SDS011;35358;49.342;8.802;2022-09-28T07:30:48;3.55;;;2.22;;
49464;SDS011;35358;49.342;8.802;2022-09-28T07:33:18;5.40;;;2.08;;
49464;SDS011;35358;49.342;8.802;2022-09-28T07:35:50;4.47;;;2.00;;
49464;SDS011;35358;49.342;8.802;2022-09-28T07:38:19;5.38;;;2.35;;
49464;SDS011;35358;49.342;8.802;2022-09-28T07:40:48;7.07;;;3.00;;
49464;SDS011;35358;49.342;8.802;2022-09-28T07:43:32;5.30;;;2.92;;
49464;SDS011;35358;49.342;8.802;2022-09-28T07:46:00;3.75;;;2.25;;
49464;SDS011;35358;49.342;8.802;2022-09-28T07:48:25;3.97;;;2.13;;
49464;SDS011;35358;49.342;8.802;2022-09-28T07:50:56;4.18;;;2.35;;
49464;SDS011;35358;49.342;8.802;2022-09-28T07:53:26;4.03;;;1.95;;
49464;SDS011;35358;49.342;8.802;2022-09-28T07:55:56;5.57;;;2.15;;
49464;SDS011;35358;49.342;8.802;2022-09-28T07:58:28;3.10;;;1.90;;
49464;SDS011;35358;49.342;8.802;2022-09-28T08:00:57;5.95;;;3.15;;
49464;SDS011;35358;49.342;8.802;2022-09-28T08:03:25;5.20;;;3.00;;
49464;SDS011;35358;49.342;8.802;2022-09-28T08:05:55;5.80;;;2.13;;
49464;SDS011;35358;49.342;8.802;2022-09-28T08:08:22;3.20;;;1.70;;
49464;SDS011;35358;49.342;8.802;2022-09-28T08:10:47;6.60;;;2.25;;
49464;SDS011;35358;49.342;8.802;2022-09-28T08:13:16;5.35;;;1.77;;
49464;SDS011;35358;49.342;8.802;2022-09-28T08:15:44;6.32;;;1.75;;
49464;SDS011;35358;49.342;8.802;2022-09-28T08:18:15;3.90;;;1.60;;
49464;SDS011;35358;49.342;8.802;2022-09-28T08:20:44;6.00;;;1.83;;
49464;SDS011;35358;49.342;8.802;2022-09-28T08:23:33;8.02;;;4.95;;
49464;SDS011;35358;49.342;8.802;2022-09-28T08:26:02;7.05;;;3.08;;
49464;SDS011;35358;49.342;8.802;2022-09-28T08:28:30;5.80;;;1.65;;
49464;SDS011;35358;49.342;8.802;2022-09-28T08:30:58;5.40;;;2.25;;
49464;SDS011;35358;49.342;8.802;2022-09-28T08:33:27;4.57;;;1.43;;
49464;SDS011;35358;49.342;8.802;2022-09-28T08:35:54;3.88;;;1.65;;
49464;SDS011;35358;49.342;8.802;2022-09-28T08:38:22;6.30;;;1.80;;
49464;SDS011;35358;49.342;8.802;2022-09-28T08:46:52;6.03;;;2.00;;
49464;SDS011;35358;49.342;8.802;2022-09-28T08:49:29;4.88;;;2.55;;
49464;SDS011;35358;49.342;8.802;2022-09-28T08:52:04;4.93;;;1.20;;
49464;SDS011;35358;49.342;8.802;2022-09-28T08:54:56;6.50;;;1.70;;
49464;SDS011;35358;49.342;8.802;2022-09-28T08:57:29;5.60;;;1.30;;
49464;SDS011;35358;49.342;8.802;2022-09-28T09:03:16;4.35;;;1.45;;
49464;SDS011;35358;49.342;8.802;2022-09-28T09:19:33;4.47;;;1.20;;
49464;SDS011;35358;49.342;8.802;2022-09-28T09:22:20;6.25;;;1.13;;
49464;SDS011;35358;49.342;8.802;2022-09-28T09:25:19;3.72;;;0.93;;
49464;SDS011;35358;49.342;8.802;2022-09-28T09:44:13;5.07;;;1.02;;
49464;SDS011;35358;49.342;8.802;2022-09-28T09:47:16;4.13;;;1.10;;
49464;SDS011;35358;49.342;8.802;2022-09-28T09:49:55;2.10;;;0.85;;
49464;SDS011;35358;49.342;8.802;2022-09-28T09:55:22;2.63;;;0.88;;
49464;SDS011;35358;49.342;8.802;2022-09-28T09:57:58;4.25;;;1.10;;
49464;SDS011;35358;49.342;8.802;2022-09-28T10:00:29;2.28;;;0.93;;
49464;SDS011;35358;49.342;8.802;2022-09-28T10:02:56;1.65;;;0.80;;
49464;SDS011;35358;49.342;8.802;2022-09-28T10:05:24;2.28;;;0.82;;
49464;SDS011;35358;49.342;8.802;2022-09-28T10:08:03;4.93;;;0.90;;
49464;SDS011;35358;49.342;8.802;2022-09-28T10:10:47;3.38;;;0.70;;
49464;SDS011;35358;49.342;8.802;2022-09-28T10:15:47;3.17;;;0.82;;
49464;SDS011;35358;49.342;8.802;2022-09-28T10:18:15;3.83;;;0.65;;
49464;SDS011;35358;49.342;8.802;2022-09-28T10:20:44;1.35;;;0.52;;
49464;SDS011;35358;49.342;8.802;2022-09-28T10:23:16;5.53;;;0.68;;
49464;SDS011;35358;49.342;8.802;2022-09-28T10:25:52;2.73;;;0.87;;
49464;SDS011;35358;49.342;8.802;2022-09-28T10:28:25;3.70;;;0.80;;
49464;SDS011;35358;49.342;8.802;2022-09-28T10:30:58;2.53;;;0.80;;
49464;SDS011;35358;49.342;8.802;2022-09-28T10:33:33;2.88;;;0.65;;
49464;SDS011;35358;49.342;8.802;2022-09-28T10:35:59;3.05;;;0.70;;
49464;SDS011;35358;49.342;8.802;2022-09-28T10:38:30;1.75;;;0.60;;
49464;SDS011;35358;49.342;8.802;2022-09-28T10:40:57;3.30;;;1.50;;
49464;SDS011;35358;49.342;8.802;2022-09-28T10:43:35;2.70;;;0.60;;
49464;SDS011;35358;49.342;8.802;2022-09-28T10:48:52;2.72;;;0.70;;
49464;SDS011;35358;49.342;8.802;2022-09-28T10:54:12;5.47;;;0.85;;
49464;SDS011;35358;49.342;8.802;2022-09-28T10:56:39;2.17;;;0.70;;
49464;SDS011;35358;49.342;8.802;2022-09-28T11:02:00;1.67;;;0.60;;
49464;SDS011;35358;49.342;8.802;2022-09-28T11:04:34;3.40;;;0.70;;
49464;SDS011;35358;49.342;8.802;2022-09-28T11:07:05;2.95;;;0.85;;
49464;SDS011;35358;49.342;8.802;2022-09-28T11:09:44;1.80;;;0.70;;
49464;SDS011;35358;49.342;8.802;2022-09-28T11:12:19;1.20;;;0.60;;
49464;SDS011;35358;49.342;8.802;2022-09-28T11:14:48;2.67;;;0.77;;
49464;SDS011;35358;49.342;8.802;2022-09-28T11:19:57;4.18;;;0.90;;
49464;SDS011;35358;49.342;8.802;2022-09-28T11:27:48;1.92;;;0.82;;
49464;SDS011;35358;49.342;8.802;2022-09-28T11:30:23;1.75;;;0.60;;
49464;SDS011;35358;49.342;8.802;2022-09-28T11:32:49;2.58;;;0.70;;
49464;SDS011;35358;49.342;8.802;2022-09-28T11:35:21;2.20;;;0.80;;
49464;SDS011;35358;49.342;8.802;2022-09-28T11:48:00;2.63;;;0.70;;
49464;SDS011;35358;49.342;8.802;2022-09-28T11:53:22;1.60;;;1.17;;
49464;SDS011;35358;49.342;8.802;2022-09-28T11:56:17;1.42;;;0.65;;
49464;SDS011;35358;49.342;8.802;2022-09-28T11:59:10;1.63;;;0.93;;
49464;SDS011;35358;49.342;8.802;2022-09-28T12:01:56;3.13;;;0.65;;
49464;SDS011;35358;49.342;8.802;2022-09-28T12:04:30;1.65;;;0.70;;
49464;SDS011;35358;49.342;8.802;2022-09-28T12:07:07;3.55;;;0.85;;
49464;SDS011;35358;49.342;8.802;2022-09-28T12:09:59;2.78;;;0.73;;
49464;SDS011;35358;49.342;8.802;2022-09-28T12:12:36;3.42;;;0.70;;
49464;SDS011;35358;49.342;8.802;2022-09-28T12:17:48;3.80;;;0.90;;
49464;SDS011;35358;49.342;8.802;2022-09-28T12:20:25;4.43;;;0.80;;
49464;SDS011;35358;49.342;8.802;2022-09-28T12:25:47;2.67;;;0.70;;
49464;SDS011;35358;49.342;8.802;2022-09-28T12:31:15;5.15;;;0.98;;
49464;SDS011;35358;49.342;8.802;2022-09-28T12:33:47;2.30;;;0.60;;
49464;SDS011;35358;49.342;8.802;2022-09-28T12:44:50;3.15;;;0.82;;
49464;SDS011;35358;49.342;8.802;2022-09-28T13:01:05;1.73;;;0.60;;
49464;SDS011;35358;49.342;8.802;2022-09-28T13:09:38;2.80;;;0.93;;
49464;SDS011;35358;49.342;8.802;2022-09-28T13:15:14;2.60;;;0.82;;
49464;SDS011;35358;49.342;8.802;2022-09-28T13:17:47;3.03;;;0.77;;
49464;SDS011;35358;49.342;8.802;2022-09-28T13:20:30;3.63;;;0.80;;
49464;SDS011;35358;49.342;8.802;2022-09-28T13:25:54;1.95;;;0.60;;
49464;SDS011;35358;49.342;8.802;2022-09-28T13:28:25;2.28;;;0.43;;
49464;SDS011;35358;49.342;8.802;2022-09-28T13:30:52;1.77;;;0.80;;
49464;SDS011;35358;49.342;8.802;2022-09-28T13:33:27;1.67;;;0.50;;
49464;SDS011;35358;49.342;8.802;2022-09-28T13:35:59;3.15;;;0.70;;
49464;SDS011;35358;49.342;8.802;2022-09-28T13:38:29;3.08;;;0.65;;
49464;SDS011;35358;49.342;8.802;2022-09-28T13:41:09;3.40;;;0.70;;
49464;SDS011;35358;49.342;8.802;2022-09-28T13:46:35;3.13;;;0.52;;
49464;SDS011;35358;49.342;8.802;2022-09-28T13:51:43;3.95;;;0.60;;
49464;SDS011;35358;49.342;8.802;2022-09-28T13:59:43;1.15;;;0.50;;
49464;SDS011;35358;49.342;8.802;2022-09-28T14:04:57;3.17;;;0.47;;
49464;SDS011;35358;49.342;8.802;2022-09-28T14:18:20;1.40;;;0.60;;
49464;SDS011;35358;49.342;8.802;2022-09-28T14:29:41;1.90;;;0.68;;
49464;SDS011;35358;49.342;8.802;2022-09-28T14:34:37;2.50;;;0.60;;
49464;SDS011;35358;49.342;8.802;2022-09-28T14:40:26;3.65;;;0.80;;
49464;SDS011;35358;49.342;8.802;2022-09-28T14:45:44;1.45;;;0.68;;
49464;SDS011;35358;49.342;8.802;2022-09-28T14:48:13;5.03;;;1.00;;
49464;SDS011;35358;49.342;8.802;2022-09-28T14:50:45;1.60;;;0.50;;
49464;SDS011;35358;49.342;8.802;2022-09-28T14:53:21;1.63;;;0.63;;
49464;SDS011;35358;49.342;8.802;2022-09-28T14:55:54;1.38;;;0.52;;
49464;SDS011;35358;49.342;8.802;2022-09-28T14:58:26;2.53;;;0.60;;
49464;SDS011;35358;49.342;8.802;2022-09-28T15:00:58;3.05;;;0.60;;
49464;SDS011;35358;49.342;8.802;2022-09-28T15:03:29;3.08;;;0.80;;
49464;SDS011;35358;49.342;8.802;2022-09-28T15:06:00;1.60;;;0.73;;
49464;SDS011;35358;49.342;8.802;2022-09-28T15:08:35;1.77;;;0.85;;
49464;SDS011;35358;49.342;8.802;2022-09-28T15:11:02;1.08;;;0.60;;
49464;SDS011;35358;49.342;8.802;2022-09-28T15:13:28;4.38;;;0.98;;
49464;SDS011;35358;49.342;8.802;2022-09-28T15:15:58;2.45;;;1.02;;
49464;SDS011;35358;49.342;8.802;2022-09-28T15:21:18;3.70;;;0.95;;
49464;SDS011;35358;49.342;8.802;2022-09-28T15:23:45;2.15;;;1.02;;
49464;SDS011;35358;49.342;8.802;2022-09-28T15:26:20;2.05;;;0.60;;
49464;SDS011;35358;49.342;8.802;2022-09-28T15:28:46;3.47;;;0.70;;
49464;SDS011;35358;49.342;8.802;2022-09-28T15:31:16;2.58;;;1.05;;
49464;SDS011;35358;49.342;8.802;2022-09-28T15:33:43;2.88;;;0.60;;
49464;SDS011;35358;49.342;8.802;2022-09-28T15:36:28;2.15;;;0.75;;
49464;SDS011;35358;49.342;8.802;2022-09-28T15:39:03;2.28;;;0.57;;
49464;SDS011;35358;49.342;8.802;2022-09-28T15:41:46;5.55;;;2.75;;
49464;SDS011;35358;49.342;8.802;2022-09-28T15:46:45;2.53;;;0.80;;
49464;SDS011;35358;49.342;8.802;2022-09-28T15:52:34;2.13;;;0.70;;
49464;SDS011;35358;49.342;8.802;2022-09-28T16:00:39;4.07;;;0.88;;
49464;SDS011;35358;49.342;8.802;2022-09-28T16:08:22;1.98;;;0.82;;
49464;SDS011;35358;49.342;8.802;2022-09-28T16:14:14;5.10;;;1.35;;
49464;SDS011;35358;49.342;8.802;2022-09-28T16:16:51;6.75;;;2.03;;
49464;SDS011;35358;49.342;8.802;2022-09-28T16:19:30;5.85;;;2.70;;
49464;SDS011;35358;49.342;8.802;2022-09-28T16:22:01;5.00;;;2.70;;
49464;SDS011;35358;49.342;8.802;2022-09-28T16:24:34;5.95;;;3.65;;
49464;SDS011;35358;49.342;8.802;2022-09-28T16:27:05;8.40;;;4.20;;
49464;SDS011;35358;49.342;8.802;2022-09-28T16:30:01;6.50;;;2.83;;
49464;SDS011;35358;49.342;8.802;2022-09-28T16:32:36;7.22;;;3.20;;
49464;SDS011;35358;49.342;8.802;2022-09-28T16:37:45;4.13;;;2.63;;
49464;SDS011;35358;49.342;8.802;2022-09-28T16:40:20;4.40;;;2.30;;
49464;SDS011;35358;49.342;8.802;2022-09-28T16:42:48;5.80;;;2.47;;
49464;SDS011;35358;49.342;8.802;2022-09-28T16:45:20;4.97;;;2.50;;
49464;SDS011;35358;49.342;8.802;2022-09-28T16:47:49;9.85;;;3.45;;
49464;SDS011;35358;49.342;8.802;2022-09-28T16:50:19;4.00;;;1.85;;
49464;SDS011;35358;49.342;8.802;2022-09-28T16:52:45;9.32;;;3.03;;
49464;SDS011;35358;49.342;8.802;2022-09-28T16:55:32;4.05;;;1.40;;
49464;SDS011;35358;49.342;8.802;2022-09-28T16:57:57;5.60;;;1.75;;
49464;SDS011;35358;49.342;8.802;2022-09-28T17:00:26;4.32;;;1.58;;
49464;SDS011;35358;49.342;8.802;2022-09-28T17:02:53;3.72;;;2.00;;
49464;SDS011;35358;49.342;8.802;2022-09-28T17:05:21;35.38;;;24.88;;
49464;SDS011;35358;49.342;8.802;2022-09-28T17:07:47;7.18;;;4.97;;
49464;SDS011;35358;49.342;8.802;2022-09-28T17:10:38;4.25;;;1.52;;
49464;SDS011;35358;49.342;8.802;2022-09-28T17:13:09;4.20;;;2.65;;
49464;SDS011;35358;49.342;8.802;2022-09-28T17:15:40;6.80;;;4.18;;
49464;SDS011;35358;49.342;8.802;2022-09-28T17:18:06;7.25;;;3.30;;
49464;SDS011;35358;49.342;8.802;2022-09-28T17:20:37;13.48;;;4.85;;
49464;SDS011;35358;49.342;8.802;2022-09-28T17:23:04;8.18;;;4.95;;
49464;SDS011;35358;49.342;8.802;2022-09-28T17:25:31;7.80;;;5.05;;
49464;SDS011;35358;49.342;8.802;2022-09-28T17:27:57;9.88;;;5.50;;
49464;SDS011;35358;49.342;8.802;2022-09-28T17:30:23;8.32;;;5.00;;
49464;SDS011;35358;49.342;8.802;2022-09-28T17:32:51;6.30;;;4.18;;
49464;SDS011;35358;49.342;8.802;2022-09-28T17:35:17;4.53;;;2.97;;
49464;SDS011;35358;49.342;8.802;2022-09-28T17:37:46;4.82;;;2.78;;
49464;SDS011;35358;49.342;8.802;2022-09-28T17:42:46;4.32;;;2.30;;
49464;SDS011;35358;49.342;8.802;2022-09-28T17:45:15;8.13;;;3.58;;
49464;SDS011;35358;49.342;8.802;2022-09-28T17:47:44;6.22;;;3.83;;
49464;SDS011;35358;49.342;8.802;2022-09-28T17:50:17;6.05;;;3.83;;
49464;SDS011;35358;49.342;8.802;2022-09-28T17:52:49;11.27;;;4.95;;
49464;SDS011;35358;49.342;8.802;2022-09-28T17:55:18;5.97;;;4.18;;
49464;SDS011;35358;49.342;8.802;2022-09-28T17:57:45;6.95;;;3.88;;
49464;SDS011;35358;49.342;8.802;2022-09-28T18:00:11;7.82;;;4.32;;
49464;SDS011;35358;49.342;8.802;2022-09-28T18:02:38;8.52;;;3.53;;
49464;SDS011;35358;49.342;8.802;2022-09-28T18:05:04;4.60;;;3.10;;
49464;SDS011;35358;49.342;8.802;2022-09-28T18:07:30;9.80;;;6.05;;
49464;SDS011;35358;49.342;8.802;2022-09-28T18:10:00;12.50;;;7.68;;
49464;SDS011;35358;49.342;8.802;2022-09-28T18:12:28;8.70;;;6.03;;
49464;SDS011;35358;49.342;8.802;2022-09-28T18:14:53;12.48;;;6.45;;
49464;SDS011;35358;49.342;8.802;2022-09-28T18:17:21;7.70;;;4.68;;
49464;SDS011;35358;49.342;8.802;2022-09-28T18:19:47;9.10;;;5.30;;
49464;SDS011;35358;49.342;8.802;2022-09-28T18:22:12;11.80;;;7.28;;
49464;SDS011;35358;49.342;8.802;2022-09-28T18:24:38;11.13;;;5.75;;
49464;SDS011;35358;49.342;8.802;2022-09-28T18:27:04;5.53;;;4.18;;
49464;SDS011;35358;49.342;8.802;2022-09-28T18:29:29;11.80;;;3.83;;
49464;SDS011;35358;49.342;8.802;2022-09-28T18:31:57;19.88;;;12.68;;
49464;SDS011;35358;49.342;8.802;2022-09-28T18:34:23;16.00;;;11.27;;
49464;SDS011;35358;49.342;8.802;2022-09-28T18:36:51;20.88;;;16.73;;
49464;SDS011;35358;49.342;8.802;2022-09-28T18:39:18;17.42;;;12.35;;
49464;SDS011;35358;49.342;8.802;2022-09-28T18:41:44;21.02;;;10.57;;
49464;SDS011;35358;49.342;8.802;2022-09-28T18:44:10;13.70;;;9.20;;
49464;SDS011;35358;49.342;8.802;2022-09-28T18:46:35;14.13;;;8.68;;
49464;SDS011;35358;49.342;8.802;2022-09-28T18:49:04;21.30;;;10.80;;
49464;SDS011;35358;49.342;8.802;2022-09-28T18:51:29;12.40;;;9.70;;
49464;SDS011;35358;49.342;8.802;2022-09-28T18:53:55;18.33;;;11.65;;
49464;SDS011;35358;49.342;8.802;2022-09-28T18:56:20;20.63;;;15.77;;
49464;SDS011;35358;49.342;8.802;2022-09-28T18:58:47;19.30;;;12.80;;
49464;SDS011;35358;49.342;8.802;2022-09-28T19:01:19;15.20;;;11.55;;